sensor_id;sensor_type;location;lat;lon;timestamp;temperature;humidity
21417;DHT22;10869;52.238;10.716;2024-01-25T02:01:14;7.10;99.90
21417;DHT22;10869;52.238;10.716;2024-01-25T02:03:40;7.10;99.90
21417;DHT22;10869;52.238;10.716;2024-01-25T02:06:07;7.10;99.90
21417;DHT22;10869;52.238;10.716;2024-01-25T02:08:32;7.00;99.90
21417;DHT22;10869;52.238;10.716;2024-01-25T02:10:58;7.00;99.90
21417;DHT22;10869;52.238;10.716;2024-01-25T02:13:24;7.10;99.90
21417;DHT22;10869;52.238;10.716;2024-01-25T02:15:50;7.00;99.90
21417;DHT22;10869;52.238;10.716;2024-01-25T02:18:16;7.00;99.90
21417;DHT22;10869;52.238;10.716;2024-01-25T02:20:42;7.00;99.90
21417;DHT22;10869;52.238;10.716;2024-01-25T02:23:07;7.00;99.90
21417;DHT22;10869;52.238;10.716;2024-01-25T02:25:33;7.00;99.90
21417;DHT22;10869;52.238;10.716;2024-01-25T02:27:59;7.00;99.90
21417;DHT22;10869;52.238;10.716;2024-01-25T02:30:25;7.00;99.90
21417;DHT22;10869;52.238;10.716;2024-01-25T02:32:50;7.00;99.90
21417;DHT22;10869;52.238;10.716;2024-01-25T02:35:16;7.00;99.90
21417;DHT22;10869;52.238;10.716;2024-01-25T02:37:42;6.90;99.90
21417;DHT22;10869;52.238;10.716;2024-01-25T02:40:08;6.90;99.90
21417;DHT22;10869;52.238;10.716;2024-01-25T02:42:34;6.90;99.90
21417;DHT22;10869;52.238;10.716;2024-01-25T02:45:00;6.90;99.90
21417;DHT22;10869;52.238;10.716;2024-01-25T02:47:25;6.90;99.90
21417;DHT22;10869;52.238;10.716;2024-01-25T02:49:51;6.90;99.90
21417;DHT22;10869;52.238;10.716;2024-01-25T02:52:19;6.90;99.90
21417;DHT22;10869;52.238;10.716;2024-01-25T02:54:45;6.80;99.90
21417;DHT22;10869;52.238;10.716;2024-01-25T02:57:11;6.80;99.90
21417;DHT22;10869;52.238;10.716;2024-01-25T02:59:36;6.80;99.90
21417;DHT22;10869;52.238;10.716;2024-01-25T03:02:02;6.80;99.90
21417;DHT22;10869;52.238;10.716;2024-01-25T03:04:28;6.70;99.90
21417;DHT22;10869;52.238;10.716;2024-01-25T03:06:54;6.70;99.90
21417;DHT22;10869;52.238;10.716;2024-01-25T03:09:19;6.70;99.90
21417;DHT22;10869;52.238;10.716;2024-01-25T03:11:46;6.70;99.90
21417;DHT22;10869;52.238;10.716;2024-01-25T03:14:12;6.70;99.90
21417;DHT22;10869;52.238;10.716;2024-01-25T03:16:38;6.70;99.90
21417;DHT22;10869;52.238;10.716;2024-01-25T03:19:04;6.70;99.90
21417;DHT22;10869;52.238;10.716;2024-01-25T03:21:29;6.60;99.90
21417;DHT22;10869;52.238;10.716;2024-01-25T03:23:55;6.60;99.90
21417;DHT22;10869;52.238;10.716;2024-01-25T03:29:43;6.60;99.90
21417;DHT22;10869;52.238;10.716;2024-01-25T03:32:10;6.50;99.90
21417;DHT22;10869;52.238;10.716;2024-01-25T03:34:36;6.60;99.90
21417;DHT22;10869;52.238;10.716;2024-01-25T03:37:02;6.60;99.90
21417;DHT22;10869;52.238;10.716;2024-01-25T03:39:28;6.60;99.90
21417;DHT22;10869;52.238;10.716;2024-01-25T03:41:54;6.60;99.90
21417;DHT22;10869;52.238;10.716;2024-01-25T03:44:19;6.50;99.90
21417;DHT22;10869;52.238;10.716;2024-01-25T03:46:46;6.60;99.90
21417;DHT22;10869;52.238;10.716;2024-01-25T03:49:11;6.50;99.90
21417;DHT22;10869;52.238;10.716;2024-01-25T03:51:37;6.50;99.90
21417;DHT22;10869;52.238;10.716;2024-01-25T03:54:03;6.60;99.90
21417;DHT22;10869;52.238;10.716;2024-01-25T03:56:29;6.60;99.90
21417;DHT22;10869;52.238;10.716;2024-01-25T03:58:55;6.50;99.90
21417;DHT22;10869;52.238;10.716;2024-01-25T04:01:25;6.50;99.90
21417;DHT22;10869;52.238;10.716;2024-01-25T04:03:51;6.50;99.90
21417;DHT22;10869;52.238;10.716;2024-01-25T04:06:18;6.50;99.90
21417;DHT22;10869;52.238;10.716;2024-01-25T04:08:45;6.60;99.90
21417;DHT22;10869;52.238;10.716;2024-01-25T04:11:10;6.60;99.90
21417;DHT22;10869;52.238;10.716;2024-01-25T04:13:36;6.60;99.90
21417;DHT22;10869;52.238;10.716;2024-01-25T04:16:02;6.60;99.90
21417;DHT22;10869;52.238;10.716;2024-01-25T04:18:28;6.60;99.90
21417;DHT22;10869;52.238;10.716;2024-01-25T04:20:54;6.50;99.90
21417;DHT22;10869;52.238;10.716;2024-01-25T04:23:19;6.50;99.90
21417;DHT22;10869;52.238;10.716;2024-01-25T04:25:45;6.60;99.90
21417;DHT22;10869;52.238;10.716;2024-01-25T04:28:11;6.60;99.90
21417;DHT22;10869;52.238;10.716;2024-01-25T04:30:37;6.60;99.90
21417;DHT22;10869;52.238;10.716;2024-01-25T04:33:03;6.60;99.90
21417;DHT22;10869;52.238;10.716;2024-01-25T04:35:29;6.60;99.90
21417;DHT22;10869;52.238;10.716;2024-01-25T04:37:57;6.60;99.90
21417;DHT22;10869;52.238;10.716;2024-01-25T04:40:23;6.60;99.90
21417;DHT22;10869;52.238;10.716;2024-01-25T04:42:51;6.60;99.90
21417;DHT22;10869;52.238;10.716;2024-01-25T04:45:16;6.60;99.90
21417;DHT22;10869;52.238;10.716;2024-01-25T04:47:42;6.60;99.90
21417;DHT22;10869;52.238;10.716;2024-01-25T04:50:08;6.50;99.90
21417;DHT22;10869;52.238;10.716;2024-01-25T04:52:34;6.50;99.90
21417;DHT22;10869;52.238;10.716;2024-01-25T04:58:24;6.50;99.90
21417;DHT22;10869;52.238;10.716;2024-01-25T05:00:49;6.50;99.90
21417;DHT22;10869;52.238;10.716;2024-01-25T05:03:19;6.50;99.90
21417;DHT22;10869;52.238;10.716;2024-01-25T05:05:45;6.50;99.90
21417;DHT22;10869;52.238;10.716;2024-01-25T05:08:11;6.50;99.90
21417;DHT22;10869;52.238;10.716;2024-01-25T05:10:39;6.50;99.90
21417;DHT22;10869;52.238;10.716;2024-01-25T05:13:05;6.50;99.90
21417;DHT22;10869;52.238;10.716;2024-01-25T05:15:31;6.40;99.90
21417;DHT22;10869;52.238;10.716;2024-01-25T05:17:57;6.40;99.90
21417;DHT22;10869;52.238;10.716;2024-01-25T05:20:23;6.40;99.90
21417;DHT22;10869;52.238;10.716;2024-01-25T05:22:48;6.40;99.90
21417;DHT22;10869;52.238;10.716;2024-01-25T05:25:14;6.40;99.90
21417;DHT22;10869;52.238;10.716;2024-01-25T05:31:02;6.40;99.90
21417;DHT22;10869;52.238;10.716;2024-01-25T05:33:28;6.40;99.90
21417;DHT22;10869;52.238;10.716;2024-01-25T05:35:54;6.30;99.90
21417;DHT22;10869;52.238;10.716;2024-01-25T05:38:19;6.30;99.90
21417;DHT22;10869;52.238;10.716;2024-01-25T05:40:45;6.30;99.90
21417;DHT22;10869;52.238;10.716;2024-01-25T05:43:11;6.30;99.90
21417;DHT22;10869;52.238;10.716;2024-01-25T05:45:37;6.30;99.90
21417;DHT22;10869;52.238;10.716;2024-01-25T05:48:03;6.20;99.90
21417;DHT22;10869;52.238;10.716;2024-01-25T05:50:29;6.30;99.90
21417;DHT22;10869;52.238;10.716;2024-01-25T05:52:54;6.20;99.90
21417;DHT22;10869;52.238;10.716;2024-01-25T05:55:20;6.30;99.90
21417;DHT22;10869;52.238;10.716;2024-01-25T05:57:46;6.30;99.90
21417;DHT22;10869;52.238;10.716;2024-01-25T06:00:12;6.20;99.90
21417;DHT22;10869;52.238;10.716;2024-01-25T06:02:38;6.20;99.90
21417;DHT22;10869;52.238;10.716;2024-01-25T06:05:04;6.20;99.90
21417;DHT22;10869;52.238;10.716;2024-01-25T06:07:30;6.20;99.90
21417;DHT22;10869;52.238;10.716;2024-01-25T06:09:56;6.20;99.90
21417;DHT22;10869;52.238;10.716;2024-01-25T06:12:22;6.20;99.90
21417;DHT22;10869;52.238;10.716;2024-01-25T06:14:48;6.20;99.90
21417;DHT22;10869;52.238;10.716;2024-01-25T06:17:14;6.20;99.90
21417;DHT22;10869;52.238;10.716;2024-01-25T06:19:40;6.20;99.90
21417;DHT22;10869;52.238;10.716;2024-01-25T06:22:06;6.20;99.90
21417;DHT22;10869;52.238;10.716;2024-01-25T06:24:32;6.20;99.90
21417;DHT22;10869;52.238;10.716;2024-01-25T06:26:57;6.10;99.90
21417;DHT22;10869;52.238;10.716;2024-01-25T06:29:30;6.10;99.90
21417;DHT22;10869;52.238;10.716;2024-01-25T06:31:58;6.10;99.90
21417;DHT22;10869;52.238;10.716;2024-01-25T06:34:24;6.10;99.90
21417;DHT22;10869;52.238;10.716;2024-01-25T06:36:51;6.10;99.90
21417;DHT22;10869;52.238;10.716;2024-01-25T06:42:56;6.10;99.90
21417;DHT22;10869;52.238;10.716;2024-01-25T06:45:22;6.10;99.90
21417;DHT22;10869;52.238;10.716;2024-01-25T06:47:48;6.10;99.90
21417;DHT22;10869;52.238;10.716;2024-01-25T06:53:41;6.10;99.90
21417;DHT22;10869;52.238;10.716;2024-01-25T06:56:07;6.10;99.90
21417;DHT22;10869;52.238;10.716;2024-01-25T06:58:33;6.10;99.90
21417;DHT22;10869;52.238;10.716;2024-01-25T07:01:01;6.00;99.90
21417;DHT22;10869;52.238;10.716;2024-01-25T07:03:27;6.00;99.90
21417;DHT22;10869;52.238;10.716;2024-01-25T07:05:53;6.00;99.90
21417;DHT22;10869;52.238;10.716;2024-01-25T07:08:19;6.10;99.90
21417;DHT22;10869;52.238;10.716;2024-01-25T07:10:45;6.00;99.90
21417;DHT22;10869;52.238;10.716;2024-01-25T07:16:33;6.10;99.90
21417;DHT22;10869;52.238;10.716;2024-01-25T07:18:59;6.00;99.90
21417;DHT22;10869;52.238;10.716;2024-01-25T07:21:32;6.00;99.90
21417;DHT22;10869;52.238;10.716;2024-01-25T07:24:03;6.00;99.90
21417;DHT22;10869;52.238;10.716;2024-01-25T07:26:29;6.00;99.90
21417;DHT22;10869;52.238;10.716;2024-01-25T07:28:55;6.00;99.90
21417;DHT22;10869;52.238;10.716;2024-01-25T07:31:27;6.00;99.90
21417;DHT22;10869;52.238;10.716;2024-01-25T07:33:56;6.00;99.90
21417;DHT22;10869;52.238;10.716;2024-01-25T07:36:25;6.00;99.90
21417;DHT22;10869;52.238;10.716;2024-01-25T07:38:51;6.10;99.90
21417;DHT22;10869;52.238;10.716;2024-01-25T07:49:03;6.00;99.90
21417;DHT22;10869;52.238;10.716;2024-01-25T07:51:28;6.00;99.90
21417;DHT22;10869;52.238;10.716;2024-01-25T07:53:55;6.00;99.90
21417;DHT22;10869;52.238;10.716;2024-01-25T08:09:55;6.00;99.90
21417;DHT22;10869;52.238;10.716;2024-01-25T08:12:24;6.00;99.90
21417;DHT22;10869;52.238;10.716;2024-01-25T08:18:12;6.00;99.90
21417;DHT22;10869;52.238;10.716;2024-01-25T08:20:38;6.10;99.90
21417;DHT22;10869;52.238;10.716;2024-01-25T08:23:04;6.10;99.90
21417;DHT22;10869;52.238;10.716;2024-01-25T09:19:52;6.10;99.90
21417;DHT22;10869;52.238;10.716;2024-01-25T09:22:18;6.10;99.90
21417;DHT22;10869;52.238;10.716;2024-01-25T09:24:48;6.20;99.90
21417;DHT22;10869;52.238;10.716;2024-01-25T09:27:14;6.20;99.90
21417;DHT22;10869;52.238;10.716;2024-01-25T09:29:40;6.20;99.90
21417;DHT22;10869;52.238;10.716;2024-01-25T09:32:07;6.20;99.90
21417;DHT22;10869;52.238;10.716;2024-01-25T09:39:44;6.30;99.90
21417;DHT22;10869;52.238;10.716;2024-01-25T09:42:10;6.30;99.90
21417;DHT22;10869;52.238;10.716;2024-01-25T09:44:38;6.30;99.90
21417;DHT22;10869;52.238;10.716;2024-01-25T09:47:05;6.40;99.90
21417;DHT22;10869;52.238;10.716;2024-01-25T09:49:34;6.40;99.90
21417;DHT22;10869;52.238;10.716;2024-01-25T09:52:02;6.50;99.90
21417;DHT22;10869;52.238;10.716;2024-01-25T09:54:35;6.50;99.90
21417;DHT22;10869;52.238;10.716;2024-01-25T09:57:08;6.50;99.90
21417;DHT22;10869;52.238;10.716;2024-01-25T09:59:35;6.60;99.90
21417;DHT22;10869;52.238;10.716;2024-01-25T10:02:01;6.60;99.90
21417;DHT22;10869;52.238;10.716;2024-01-25T10:04:30;6.60;99.90
21417;DHT22;10869;52.238;10.716;2024-01-25T10:06:56;6.70;99.90
21417;DHT22;10869;52.238;10.716;2024-01-25T10:09:22;6.60;99.90
21417;DHT22;10869;52.238;10.716;2024-01-25T10:11:49;6.60;99.90
21417;DHT22;10869;52.238;10.716;2024-01-25T10:14:15;6.60;99.90
21417;DHT22;10869;52.238;10.716;2024-01-25T10:16:40;6.70;99.90
21417;DHT22;10869;52.238;10.716;2024-01-25T10:19:07;6.70;99.90
21417;DHT22;10869;52.238;10.716;2024-01-25T10:21:36;6.70;99.90
21417;DHT22;10869;52.238;10.716;2024-01-25T10:42:09;6.80;99.90
21417;DHT22;10869;52.238;10.716;2024-01-25T10:44:36;6.80;99.90
21417;DHT22;10869;52.238;10.716;2024-01-25T11:46:43;6.90;99.90
21417;DHT22;10869;52.238;10.716;2024-01-25T12:46:10;7.40;99.90
21417;DHT22;10869;52.238;10.716;2024-01-25T12:48:36;7.40;99.90
21417;DHT22;10869;52.238;10.716;2024-01-25T12:51:05;7.50;99.90
21417;DHT22;10869;52.238;10.716;2024-01-25T12:53:30;7.50;99.90
21417;DHT22;10869;52.238;10.716;2024-01-25T12:55:56;7.50;99.90
21417;DHT22;10869;52.238;10.716;2024-01-25T12:58:22;7.60;99.90
21417;DHT22;10869;52.238;10.716;2024-01-25T13:11:07;7.70;99.90
21417;DHT22;10869;52.238;10.716;2024-01-25T13:17:05;7.80;99.90
21417;DHT22;10869;52.238;10.716;2024-01-25T13:19:33;7.70;99.90
21417;DHT22;10869;52.238;10.716;2024-01-25T13:21:59;7.70;99.90
21417;DHT22;10869;52.238;10.716;2024-01-25T13:27:01;7.80;99.90
21417;DHT22;10869;52.238;10.716;2024-01-25T14:18:39;8.00;99.90
21417;DHT22;10869;52.238;10.716;2024-01-25T14:21:05;8.30;99.90
21417;DHT22;10869;52.238;10.716;2024-01-25T14:23:32;8.30;99.90
21417;DHT22;10869;52.238;10.716;2024-01-25T14:25:57;8.20;99.90
21417;DHT22;10869;52.238;10.716;2024-01-25T14:28:23;8.20;99.90
21417;DHT22;10869;52.238;10.716;2024-01-25T14:30:49;8.20;99.90
21417;DHT22;10869;52.238;10.716;2024-01-25T14:33:17;8.10;99.90
21417;DHT22;10869;52.238;10.716;2024-01-25T14:35:49;8.10;99.90
21417;DHT22;10869;52.238;10.716;2024-01-25T14:46:20;8.00;99.90
21417;DHT22;10869;52.238;10.716;2024-01-25T14:48:46;8.00;99.90
21417;DHT22;10869;52.238;10.716;2024-01-25T15:11:59;7.30;99.90
21417;DHT22;10869;52.238;10.716;2024-01-25T15:17:51;7.20;99.90
21417;DHT22;10869;52.238;10.716;2024-01-25T15:23:38;7.00;99.90
21417;DHT22;10869;52.238;10.716;2024-01-25T15:26:04;7.00;99.90
21417;DHT22;10869;52.238;10.716;2024-01-25T15:28:32;6.90;99.90
21417;DHT22;10869;52.238;10.716;2024-01-25T15:31:00;6.90;99.90
21417;DHT22;10869;52.238;10.716;2024-01-25T15:33:29;6.80;99.90
21417;DHT22;10869;52.238;10.716;2024-01-25T15:51:31;6.80;99.90
21417;DHT22;10869;52.238;10.716;2024-01-25T15:56:41;6.70;99.90
21417;DHT22;10869;52.238;10.716;2024-01-25T15:59:07;6.70;99.90
21417;DHT22;10869;52.238;10.716;2024-01-25T16:01:39;6.60;99.90
21417;DHT22;10869;52.238;10.716;2024-01-25T16:06:46;6.50;99.90
21417;DHT22;10869;52.238;10.716;2024-01-25T16:15:10;6.50;99.90
21417;DHT22;10869;52.238;10.716;2024-01-25T16:17:36;6.40;99.90
21417;DHT22;10869;52.238;10.716;2024-01-25T16:20:02;6.30;99.90
21417;DHT22;10869;52.238;10.716;2024-01-25T16:22:29;6.20;99.90
21417;DHT22;10869;52.238;10.716;2024-01-25T16:28:19;6.10;99.90
21417;DHT22;10869;52.238;10.716;2024-01-25T16:34:07;6.00;99.90
21417;DHT22;10869;52.238;10.716;2024-01-25T16:36:33;5.90;99.90
21417;DHT22;10869;52.238;10.716;2024-01-25T16:42:21;5.90;99.90
21417;DHT22;10869;52.238;10.716;2024-01-25T16:44:47;5.80;99.90
21417;DHT22;10869;52.238;10.716;2024-01-25T16:47:37;5.70;99.90
21417;DHT22;10869;52.238;10.716;2024-01-25T16:56:10;5.60;99.90
21417;DHT22;10869;52.238;10.716;2024-01-25T16:58:35;5.60;99.90
21417;DHT22;10869;52.238;10.716;2024-01-25T17:01:14;5.50;99.90
21417;DHT22;10869;52.238;10.716;2024-01-25T17:03:40;5.50;99.90
21417;DHT22;10869;52.238;10.716;2024-01-25T17:06:06;5.40;99.90
21417;DHT22;10869;52.238;10.716;2024-01-25T17:08:43;5.40;99.90
21417;DHT22;10869;52.238;10.716;2024-01-25T17:11:13;5.40;99.90
21417;DHT22;10869;52.238;10.716;2024-01-25T17:20:14;5.30;99.90
21417;DHT22;10869;52.238;10.716;2024-01-25T17:26:06;5.20;99.90
21417;DHT22;10869;52.238;10.716;2024-01-25T17:38:45;5.00;99.90
21417;DHT22;10869;52.238;10.716;2024-01-25T17:41:10;4.90;99.90
21417;DHT22;10869;52.238;10.716;2024-01-25T17:46:59;4.90;99.90
21417;DHT22;10869;52.238;10.716;2024-01-25T17:49:24;4.90;99.90
21417;DHT22;10869;52.238;10.716;2024-01-25T17:51:50;4.80;99.90
21417;DHT22;10869;52.238;10.716;2024-01-25T17:54:16;4.80;99.90
21417;DHT22;10869;52.238;10.716;2024-01-25T17:56:42;4.80;99.90
21417;DHT22;10869;52.238;10.716;2024-01-25T17:59:14;4.80;99.90
21417;DHT22;10869;52.238;10.716;2024-01-25T18:01:43;4.70;99.90
21417;DHT22;10869;52.238;10.716;2024-01-25T18:07:21;4.60;99.90
21417;DHT22;10869;52.238;10.716;2024-01-25T18:09:47;4.60;99.90
21417;DHT22;10869;52.238;10.716;2024-01-25T18:15:35;4.40;99.90
21417;DHT22;10869;52.238;10.716;2024-01-25T18:34:53;3.70;99.90
21417;DHT22;10869;52.238;10.716;2024-01-25T18:37:18;3.70;99.90
21417;DHT22;10869;52.238;10.716;2024-01-25T18:43:06;3.60;99.90
21417;DHT22;10869;52.238;10.716;2024-01-25T18:45:32;3.60;99.90
21417;DHT22;10869;52.238;10.716;2024-01-25T18:47:57;3.60;99.90
21417;DHT22;10869;52.238;10.716;2024-01-25T18:50:23;3.60;99.90
21417;DHT22;10869;52.238;10.716;2024-01-25T18:56:11;3.60;99.90
21417;DHT22;10869;52.238;10.716;2024-01-25T19:01:59;3.50;99.90
21417;DHT22;10869;52.238;10.716;2024-01-25T19:07:48;3.50;99.90
21417;DHT22;10869;52.238;10.716;2024-01-25T19:10:18;3.50;99.90
21417;DHT22;10869;52.238;10.716;2024-01-25T19:12:43;3.50;99.90
21417;DHT22;10869;52.238;10.716;2024-01-25T19:15:09;3.50;99.90
21417;DHT22;10869;52.238;10.716;2024-01-25T19:20:57;3.50;99.90
21417;DHT22;10869;52.238;10.716;2024-01-25T19:23:22;3.50;99.90
21417;DHT22;10869;52.238;10.716;2024-01-25T19:25:48;3.50;99.90
21417;DHT22;10869;52.238;10.716;2024-01-25T19:28:14;3.50;99.90
21417;DHT22;10869;52.238;10.716;2024-01-25T19:30:39;3.40;99.90
21417;DHT22;10869;52.238;10.716;2024-01-25T19:33:05;3.50;99.90
21417;DHT22;10869;52.238;10.716;2024-01-25T19:38:53;3.50;99.90
21417;DHT22;10869;52.238;10.716;2024-01-25T19:41:18;3.40;99.90
21417;DHT22;10869;52.238;10.716;2024-01-25T19:43:44;3.40;99.90
21417;DHT22;10869;52.238;10.716;2024-01-25T19:46:10;3.40;99.90
21417;DHT22;10869;52.238;10.716;2024-01-25T19:48:36;3.50;99.90
21417;DHT22;10869;52.238;10.716;2024-01-25T19:51:03;3.50;99.90
21417;DHT22;10869;52.238;10.716;2024-01-25T19:53:29;3.50;99.90
21417;DHT22;10869;52.238;10.716;2024-01-25T19:55:54;3.50;99.90
21417;DHT22;10869;52.238;10.716;2024-01-25T19:58:26;3.50;99.90
21417;DHT22;10869;52.238;10.716;2024-01-25T20:00:55;3.50;99.90
21417;DHT22;10869;52.238;10.716;2024-01-25T20:03:21;3.50;99.90
21417;DHT22;10869;52.238;10.716;2024-01-25T20:05:48;3.50;99.90
21417;DHT22;10869;52.238;10.716;2024-01-25T20:08:14;3.50;99.90
21417;DHT22;10869;52.238;10.716;2024-01-25T20:10:40;3.50;99.90
21417;DHT22;10869;52.238;10.716;2024-01-25T20:13:06;3.50;99.90
21417;DHT22;10869;52.238;10.716;2024-01-25T20:15:39;3.50;99.90
21417;DHT22;10869;52.238;10.716;2024-01-25T20:18:08;3.50;99.90
21417;DHT22;10869;52.238;10.716;2024-01-25T20:20:34;3.50;99.90
21417;DHT22;10869;52.238;10.716;2024-01-25T20:23:00;3.50;99.90
21417;DHT22;10869;52.238;10.716;2024-01-25T20:25:27;3.50;99.90
21417;DHT22;10869;52.238;10.716;2024-01-25T20:28:12;3.50;99.90
21417;DHT22;10869;52.238;10.716;2024-01-25T20:30:40;3.60;99.90
21417;DHT22;10869;52.238;10.716;2024-01-25T20:40:52;3.70;99.90
21417;DHT22;10869;52.238;10.716;2024-01-25T20:43:18;3.70;99.90
21417;DHT22;10869;52.238;10.716;2024-01-25T20:49:06;3.80;99.90
21417;DHT22;10869;52.238;10.716;2024-01-25T20:54:57;3.90;99.90
21417;DHT22;10869;52.238;10.716;2024-01-25T21:00:46;4.00;99.90
21417;DHT22;10869;52.238;10.716;2024-01-25T21:06:34;4.10;99.90
21417;DHT22;10869;52.238;10.716;2024-01-25T21:12:22;4.20;99.90
21417;DHT22;10869;52.238;10.716;2024-01-25T21:14:48;4.30;99.90
21417;DHT22;10869;52.238;10.716;2024-01-25T21:17:14;4.30;99.90
21417;DHT22;10869;52.238;10.716;2024-01-25T21:19:40;4.30;99.90
21417;DHT22;10869;52.238;10.716;2024-01-25T21:22:05;4.40;99.90
21417;DHT22;10869;52.238;10.716;2024-01-25T21:24:31;4.40;99.90
21417;DHT22;10869;52.238;10.716;2024-01-25T21:30:19;4.50;99.90
21417;DHT22;10869;52.238;10.716;2024-01-25T21:32:44;4.50;99.90
21417;DHT22;10869;52.238;10.716;2024-01-25T21:40:21;4.70;99.90
21417;DHT22;10869;52.238;10.716;2024-01-25T21:42:46;4.70;99.90
21417;DHT22;10869;52.238;10.716;2024-01-25T21:45:12;4.70;99.90
21417;DHT22;10869;52.238;10.716;2024-01-25T21:47:38;4.70;99.90
21417;DHT22;10869;52.238;10.716;2024-01-25T21:50:04;4.70;99.90
21417;DHT22;10869;52.238;10.716;2024-01-25T21:52:33;4.70;99.90
21417;DHT22;10869;52.238;10.716;2024-01-25T21:54:59;4.70;99.90
21417;DHT22;10869;52.238;10.716;2024-01-25T21:57:24;4.70;99.90
21417;DHT22;10869;52.238;10.716;2024-01-25T21:59:51;4.80;99.90
21417;DHT22;10869;52.238;10.716;2024-01-25T22:02:17;4.70;99.90
21417;DHT22;10869;52.238;10.716;2024-01-25T22:04:43;4.80;99.90
21417;DHT22;10869;52.238;10.716;2024-01-25T22:07:09;4.80;99.90
21417;DHT22;10869;52.238;10.716;2024-01-25T22:09:35;4.80;99.90
21417;DHT22;10869;52.238;10.716;2024-01-25T22:12:00;4.80;99.90
21417;DHT22;10869;52.238;10.716;2024-01-25T22:14:26;4.90;99.90
21417;DHT22;10869;52.238;10.716;2024-01-25T22:16:52;4.90;99.90
21417;DHT22;10869;52.238;10.716;2024-01-25T22:19:18;4.90;99.90
21417;DHT22;10869;52.238;10.716;2024-01-25T22:21:45;4.90;99.90
21417;DHT22;10869;52.238;10.716;2024-01-25T22:24:11;4.90;99.90
21417;DHT22;10869;52.238;10.716;2024-01-25T22:26:37;4.90;99.90
21417;DHT22;10869;52.238;10.716;2024-01-25T22:29:03;5.00;99.90
21417;DHT22;10869;52.238;10.716;2024-01-25T22:31:31;5.00;99.90
21417;DHT22;10869;52.238;10.716;2024-01-25T22:33:57;5.00;99.90
21417;DHT22;10869;52.238;10.716;2024-01-25T22:36:23;5.10;99.90
21417;DHT22;10869;52.238;10.716;2024-01-25T22:38:48;5.10;99.90
21417;DHT22;10869;52.238;10.716;2024-01-25T22:41:14;5.10;99.90
21417;DHT22;10869;52.238;10.716;2024-01-25T22:43:40;5.20;99.90
21417;DHT22;10869;52.238;10.716;2024-01-25T22:46:06;5.20;99.90
21417;DHT22;10869;52.238;10.716;2024-01-25T22:48:32;5.20;99.90
21417;DHT22;10869;52.238;10.716;2024-01-25T22:50:57;5.20;99.90
21417;DHT22;10869;52.238;10.716;2024-01-25T22:53:29;5.20;99.90
21417;DHT22;10869;52.238;10.716;2024-01-25T22:55:57;5.30;99.90
21417;DHT22;10869;52.238;10.716;2024-01-25T22:58:26;5.30;99.90
21417;DHT22;10869;52.238;10.716;2024-01-25T23:00:52;5.30;99.90
21417;DHT22;10869;52.238;10.716;2024-01-25T23:03:18;5.30;99.90
21417;DHT22;10869;52.238;10.716;2024-01-25T23:05:44;5.30;99.90
21417;DHT22;10869;52.238;10.716;2024-01-25T23:08:09;5.40;99.90
21417;DHT22;10869;52.238;10.716;2024-01-25T23:10:35;5.40;99.90
21417;DHT22;10869;52.238;10.716;2024-01-25T23:13:01;5.40;99.90
21417;DHT22;10869;52.238;10.716;2024-01-25T23:15:29;5.40;99.90
21417;DHT22;10869;52.238;10.716;2024-01-25T23:17:55;5.40;99.90
21417;DHT22;10869;52.238;10.716;2024-01-25T23:20:21;5.40;99.90
21417;DHT22;10869;52.238;10.716;2024-01-25T23:22:47;5.40;99.90
21417;DHT22;10869;52.238;10.716;2024-01-25T23:25:13;5.40;99.90
21417;DHT22;10869;52.238;10.716;2024-01-25T23:27:39;5.40;99.90
21417;DHT22;10869;52.238;10.716;2024-01-25T23:30:06;5.40;99.90
21417;DHT22;10869;52.238;10.716;2024-01-25T23:32:33;5.40;99.90
21417;DHT22;10869;52.238;10.716;2024-01-25T23:35:00;5.40;99.90
21417;DHT22;10869;52.238;10.716;2024-01-25T23:37:26;5.40;99.90
21417;DHT22;10869;52.238;10.716;2024-01-25T23:39:51;5.50;99.90
21417;DHT22;10869;52.238;10.716;2024-01-25T23:42:18;5.50;99.90
21417;DHT22;10869;52.238;10.716;2024-01-25T23:44:44;5.50;99.90
21417;DHT22;10869;52.238;10.716;2024-01-25T23:47:10;5.50;99.90
21417;DHT22;10869;52.238;10.716;2024-01-25T23:49:38;5.50;99.90
21417;DHT22;10869;52.238;10.716;2024-01-25T23:52:05;5.50;99.90
21417;DHT22;10869;52.238;10.716;2024-01-25T23:54:32;5.50;99.90
21417;DHT22;10869;52.238;10.716;2024-01-25T23:56:58;5.50;99.90
21417;DHT22;10869;52.238;10.716;2024-01-25T23:59:23;5.50;99.90
